createdAt,value
2023-04-07T00:00:00.267Z,102851.97
2023-04-07T00:03:07.305Z,102851.97
2023-04-07T00:06:14.420Z,102840.22
2023-04-07T00:09:19.656Z,102849.63
2023-04-07T00:12:24.688Z,102828.41
2023-04-07T00:15:31.082Z,102837.13
2023-04-07T00:18:36.235Z,102837.81
2023-04-07T00:21:41.630Z,102835.47
2023-04-07T00:24:46.953Z,102821.13
2023-04-07T00:27:51.959Z,102825.13
2023-04-07T00:30:58.460Z,102831.78
2023-04-07T00:34:03.671Z,102839.41
2023-04-07T00:37:08.707Z,102839.72
2023-04-07T00:40:14.454Z,102844.56
2023-04-07T00:43:19.837Z,102841.88
2023-04-07T00:46:26.617Z,102833.50
2023-04-07T00:49:31.691Z,102845.94
2023-04-07T00:52:36.827Z,102845.13
2023-04-07T00:55:42.080Z,102846.78
2023-04-07T00:58:47.380Z,102844.28
2023-04-07T01:02:00.377Z,102832.31
2023-04-07T01:05:11.801Z,102823.84
2023-04-07T01:08:22.354Z,102832.53
2023-04-07T01:11:32.585Z,102825.13
2023-04-07T01:14:46.443Z,102824.28
2023-04-07T01:18:22.395Z,102825.03
2023-04-07T01:21:29.951Z,102822.44
2023-04-07T01:24:52.253Z,102827.47
2023-04-07T01:28:17.233Z,102813.22
2023-04-07T01:31:25.648Z,102810.75
2023-04-07T01:34:33.269Z,102812.34
2023-04-07T01:37:39.431Z,102824.09
2023-04-07T01:40:45.651Z,102815.53
2023-04-07T01:43:50.646Z,102810.50
2023-04-07T01:46:57.892Z,102819.84
2023-04-07T01:50:05.837Z,102812.94
2023-04-07T01:53:13.268Z,102818.06
2023-04-07T01:56:18.413Z,102820.44
2023-04-07T01:59:28.009Z,102817.94
2023-04-07T02:02:38.351Z,102807.09
2023-04-07T02:05:43.984Z,102818.06
2023-04-07T02:08:52.028Z,102822.97
2023-04-07T02:11:58.087Z,102825.56
2023-04-07T02:15:06.335Z,102825.50
2023-04-07T02:18:18.674Z,102835.63
2023-04-07T02:21:24.363Z,102827.16
2023-04-07T02:24:29.433Z,102830.66
2023-04-07T02:27:34.940Z,102824.63
2023-04-07T02:30:39.963Z,102833.91
2023-04-07T02:33:46.517Z,102830.28
2023-04-07T02:36:51.669Z,102831.34
2023-04-07T02:39:56.806Z,102833.06
2023-04-07T02:43:01.875Z,102829.63
2023-04-07T02:46:07.027Z,102837.13
2023-04-07T02:49:13.595Z,102833.13
2023-04-07T02:52:18.646Z,102836.66
2023-04-07T02:55:23.767Z,102826.28
2023-04-07T02:58:29.102Z,102812.84
2023-04-07T03:01:35.098Z,102822.91
2023-04-07T03:04:42.098Z,102825.63
2023-04-07T03:07:56.064Z,102830.41
2023-04-07T03:11:01.326Z,102828.06
2023-04-07T03:14:08.507Z,102833.84
2023-04-07T03:17:20.228Z,102831.91
2023-04-07T03:20:27.231Z,102837.13
2023-04-07T03:23:32.312Z,102837.78
2023-04-07T03:26:38.440Z,102833.56
2023-04-07T03:29:51.880Z,102840.31
2023-04-07T03:32:57.550Z,102844.63
2023-04-07T03:36:04.937Z,102840.09
2023-04-07T03:39:10.490Z,102839.34
2023-04-07T03:42:15.540Z,102842.72
2023-04-07T03:45:22.174Z,102850.13
2023-04-07T03:48:30.110Z,102848.56
2023-04-07T03:51:47.961Z,102841.78
2023-04-07T03:54:55.717Z,102840.97
2023-04-07T03:58:06.953Z,102842.66
2023-04-07T04:01:14.491Z,102851.06
2023-04-07T04:04:21.965Z,102855.44
2023-04-07T04:07:28.980Z,102854.72
2023-04-07T04:10:40.744Z,102853.97
2023-04-07T04:13:45.844Z,102855.50
2023-04-07T04:16:51.046Z,102859.41
2023-04-07T04:20:19.098Z,102851.19
2023-04-07T04:23:28.744Z,102859.63
2023-04-07T04:26:35.825Z,102865.41
2023-04-07T04:29:48.902Z,102868.06
2023-04-07T04:32:57.238Z,102877.28
2023-04-07T04:36:26.325Z,102881.03
2023-04-07T04:39:37.910Z,102880.03
2023-04-07T04:42:43.831Z,102889.13
2023-04-07T04:45:51.060Z,102885.03
2023-04-07T04:48:59.803Z,102901.00
2023-04-07T04:52:05.098Z,102903.81
2023-04-07T04:55:18.355Z,102886.22
2023-04-07T04:58:24.528Z,102900.41
2023-04-07T05:01:33.561Z,102908.91
2023-04-07T05:04:47.120Z,102901.19
2023-04-07T05:08:02.528Z,102891.44
2023-04-07T05:11:14.440Z,102898.31
2023-04-07T05:14:21.931Z,102915.84
2023-04-07T05:17:33.054Z,102919.06
2023-04-07T05:20:39.853Z,102907.09
2023-04-07T05:23:46.665Z,102914.72
2023-04-07T05:26:53.574Z,102920.97
2023-04-07T05:29:59.103Z,102920.72
2023-04-07T05:33:09.041Z,102920.84
2023-04-07T05:36:27.801Z,102923.94
2023-04-07T05:39:35.196Z,102932.84
2023-04-07T05:42:44.482Z,102928.81
2023-04-07T05:45:49.978Z,102933.44
2023-04-07T05:48:55.847Z,102938.09
2023-04-07T05:52:03.528Z,102933.69
2023-04-07T05:55:09.954Z,102937.81
2023-04-07T05:58:17.653Z,102944.13
2023-04-07T06:01:28.101Z,102941.41
2023-04-07T06:04:35.407Z,102947.63
2023-04-07T06:07:42.809Z,102957.53
2023-04-07T06:10:49.080Z,102951.50
2023-04-07T06:13:55.680Z,102957.72
2023-04-07T06:17:00.849Z,102946.69
2023-04-07T06:20:07.022Z,102937.72
2023-04-07T06:23:12.154Z,102946.88
2023-04-07T06:26:17.677Z,102945.16
2023-04-07T06:29:26.460Z,102952.25
2023-04-07T06:32:33.524Z,102951.31
2023-04-07T06:35:38.723Z,102948.09
2023-04-07T06:38:45.209Z,102962.34
2023-04-07T06:41:50.291Z,102954.91
2023-04-07T06:44:57.247Z,102959.84
2023-04-07T06:48:02.463Z,102967.59
2023-04-07T06:51:07.706Z,102958.66
2023-04-07T06:54:14.095Z,102961.13
2023-04-07T06:57:19.105Z,102966.66
2023-04-07T07:00:29.087Z,102961.13
2023-04-07T07:03:34.556Z,102959.47
2023-04-07T07:06:39.594Z,102961.75
2023-04-07T07:09:44.768Z,102959.22
2023-04-07T07:12:49.944Z,102969.19
2023-04-07T07:15:56.762Z,102971.03
2023-04-07T07:19:01.863Z,102973.38
2023-04-07T07:22:06.950Z,102976.59
2023-04-07T07:25:13.019Z,102980.34
2023-04-07T07:28:18.579Z,102981.06
2023-04-07T07:31:25.117Z,102969.69
2023-04-07T07:34:30.182Z,102975.09
2023-04-07T07:37:35.812Z,102983.69
2023-04-07T07:40:40.948Z,102982.03
2023-04-07T07:43:48.311Z,102982.25
2023-04-07T07:46:55.075Z,102987.19
2023-04-07T07:50:00.711Z,102992.66
2023-04-07T07:53:05.981Z,102994.88
2023-04-07T07:56:11.022Z,102991.88
2023-04-07T07:59:17.766Z,102998.94
2023-04-07T08:02:31.387Z,102993.97
2023-04-07T08:05:36.547Z,103006.59
2023-04-07T08:08:41.578Z,103006.69
2023-04-07T08:11:48.389Z,103010.16
2023-04-07T08:14:53.447Z,103013.72
2023-04-07T08:18:00.292Z,103014.81
2023-04-07T08:21:06.681Z,103014.03
2023-04-07T08:24:12.669Z,103017.66
2023-04-07T08:27:17.761Z,103023.25
2023-04-07T08:30:23.185Z,103008.38
2023-04-07T08:33:29.902Z,103017.09
2023-04-07T08:36:34.935Z,103023.75
2023-04-07T08:39:40.060Z,103026.28
2023-04-07T08:42:50.377Z,103020.56
2023-04-07T08:45:57.330Z,103027.28
2023-04-07T08:49:04.164Z,103018.06
2023-04-07T08:52:10.600Z,103015.94
2023-04-07T08:55:15.685Z,103018.16
2023-04-07T08:58:21.990Z,103020.50
2023-04-07T09:01:27.789Z,103009.34
2023-04-07T09:04:34.476Z,103017.50
2023-04-07T09:07:43.486Z,103014.47
2023-04-07T09:10:48.552Z,103014.81
2023-04-07T09:13:53.689Z,103024.34
2023-04-07T09:17:00.283Z,103022.16
2023-04-07T09:20:07.465Z,103017.56
2023-04-07T09:23:30.520Z,103019.78
2023-04-07T09:26:35.456Z,103019.28
2023-04-07T09:29:42.856Z,103028.25
2023-04-07T09:32:48.589Z,103029.59
2023-04-07T09:35:56.227Z,103023.00
2023-04-07T09:39:10.770Z,103024.94
2023-04-07T09:42:16.017Z,103032.88
2023-04-07T09:45:34.484Z,103033.44
2023-04-07T09:48:41.770Z,103039.09
2023-04-07T09:51:57.292Z,103038.66
2023-04-07T09:55:02.438Z,103040.22
2023-04-07T09:58:07.821Z,103054.44
2023-04-07T10:01:14.545Z,103042.16
2023-04-07T10:04:19.759Z,103045.88
2023-04-07T10:07:27.191Z,103041.94
2023-04-07T10:10:32.413Z,103044.53
2023-04-07T10:13:39.197Z,103040.31
2023-04-07T10:16:44.521Z,103047.44
2023-04-07T10:19:50.089Z,103046.56
2023-04-07T10:22:57.767Z,103053.75
2023-04-07T10:26:03.610Z,103053.97
2023-04-07T10:29:11.711Z,103053.53
2023-04-07T10:32:17.329Z,103060.13
2023-04-07T10:35:23.227Z,103054.28
2023-04-07T10:38:29.760Z,103047.72
2023-04-07T10:41:36.609Z,103046.69
2023-04-07T10:44:50.694Z,103049.50
2023-04-07T10:48:12.471Z,103044.69
2023-04-07T10:51:18.968Z,103060.94
2023-04-07T10:54:29.197Z,103063.63
2023-04-07T10:57:34.546Z,103063.41
2023-04-07T11:00:39.588Z,103064.22
2023-04-07T11:03:56.181Z,103069.44
2023-04-07T11:07:01.277Z,103061.31
2023-04-07T11:10:19.189Z,103066.63
2023-04-07T11:13:24.682Z,103080.47
2023-04-07T11:16:38.311Z,103074.44
2023-04-07T11:19:53.303Z,103086.28
2023-04-07T11:23:01.921Z,103076.63
2023-04-07T11:26:08.850Z,103070.63
2023-04-07T11:29:13.985Z,103077.50
2023-04-07T11:32:26.207Z,103085.72
2023-04-07T11:35:31.597Z,103079.88
2023-04-07T11:38:38.651Z,103076.47
2023-04-07T11:41:49.828Z,103080.38
2023-04-07T11:44:54.810Z,103067.22
2023-04-07T11:47:59.978Z,103073.19
2023-04-07T11:51:06.266Z,103067.94
2023-04-07T11:54:13.328Z,103071.50
2023-04-07T11:57:28.078Z,103071.56
2023-04-07T12:00:33.622Z,103083.47
2023-04-07T12:03:39.239Z,103082.50
2023-04-07T12:06:44.602Z,103081.75
2023-04-07T12:09:49.659Z,103086.56
2023-04-07T12:12:58.237Z,103076.63
2023-04-07T12:16:05.029Z,103089.84
2023-04-07T12:19:10.150Z,103088.09
2023-04-07T12:22:15.268Z,103078.13
2023-04-07T12:25:20.639Z,103081.25
2023-04-07T12:28:27.742Z,103074.84
2023-04-07T12:31:34.133Z,103071.34
2023-04-07T12:34:40.009Z,103069.47
2023-04-07T12:37:47.755Z,103066.78
2023-04-07T12:40:54.820Z,103068.69
2023-04-07T12:44:01.230Z,103074.34
2023-04-07T12:47:06.486Z,103074.84
2023-04-07T12:50:12.312Z,103071.34
2023-04-07T12:53:17.424Z,103064.00
2023-04-07T12:56:23.087Z,103055.59
2023-04-07T12:59:30.709Z,103064.56
2023-04-07T13:02:37.959Z,103055.78
2023-04-07T13:05:43.148Z,103055.66
2023-04-07T13:08:48.221Z,103049.81
2023-04-07T13:11:53.252Z,103050.00
2023-04-07T13:15:00.668Z,103048.34
2023-04-07T13:18:06.229Z,103059.53
2023-04-07T13:21:42.679Z,103057.59
2023-04-07T13:24:37.815Z,103052.81
2023-04-07T13:27:43.050Z,103045.69
2023-04-07T13:30:49.576Z,103053.50
2023-04-07T13:33:54.638Z,103051.97
2023-04-07T13:36:59.671Z,103052.25
2023-04-07T13:40:05.044Z,103051.38
2023-04-07T13:43:11.687Z,103056.16
2023-04-07T13:46:27.765Z,103051.53
2023-04-07T13:49:33.331Z,103043.63
2023-04-07T13:52:38.464Z,103056.44
2023-04-07T13:55:43.474Z,103050.00
2023-04-07T13:58:49.640Z,103041.81
2023-04-07T14:01:56.362Z,103034.56
2023-04-07T14:05:01.506Z,103030.06
2023-04-07T14:08:06.662Z,103037.38
2023-04-07T14:11:12.122Z,103040.19
2023-04-07T14:14:17.185Z,103047.84
2023-04-07T14:17:24.029Z,103039.97
2023-04-07T14:20:36.709Z,103040.63
2023-04-07T14:23:42.338Z,103040.63
2023-04-07T14:26:48.136Z,103042.50
2023-04-07T14:29:54.226Z,103039.16
2023-04-07T14:33:01.446Z,103032.69
2023-04-07T14:36:08.379Z,103031.78
2023-04-07T14:39:14.760Z,103032.56
2023-04-07T14:42:19.886Z,103036.66
2023-04-07T14:45:24.912Z,103035.59
2023-04-07T14:48:31.329Z,103028.09
2023-04-07T14:51:38.436Z,103029.94
2023-04-07T14:54:43.533Z,103023.97
2023-04-07T14:57:48.589Z,103028.66
2023-04-07T15:00:53.580Z,103018.72
2023-04-07T15:04:01.036Z,103037.03
2023-04-07T15:07:06.362Z,103036.94
2023-04-07T15:10:12.737Z,103029.47
2023-04-07T15:13:17.754Z,103022.88
2023-04-07T15:16:22.814Z,103030.25
2023-04-07T15:19:29.332Z,103026.03
2023-04-07T15:22:34.500Z,103017.72
2023-04-07T15:25:39.781Z,103023.84
2023-04-07T15:28:44.893Z,103028.63
2023-04-07T15:31:50.062Z,103028.22
2023-04-07T15:34:56.481Z,103030.25
2023-04-07T15:38:01.658Z,103031.94
2023-04-07T15:41:06.868Z,103035.00
2023-04-07T15:44:19.764Z,103036.84
2023-04-07T15:47:25.085Z,103030.03
2023-04-07T15:50:31.794Z,103030.78
2023-04-07T15:53:37.034Z,103029.16
2023-04-07T15:56:42.105Z,103036.66
2023-04-07T15:59:47.347Z,103035.22
2023-04-07T16:02:52.537Z,103036.66
2023-04-07T16:05:59.033Z,103043.22
2023-04-07T16:09:04.933Z,103045.03
2023-04-07T16:12:14.380Z,103045.59
2023-04-07T16:15:32.410Z,103048.22
2023-04-07T16:18:41.660Z,103047.22
2023-04-07T16:21:48.173Z,103053.16
2023-04-07T16:24:53.438Z,103057.38
2023-04-07T16:27:58.531Z,103050.56
2023-04-07T16:31:06.036Z,103049.66
2023-04-07T16:34:11.163Z,103055.53
2023-04-07T16:37:17.574Z,103048.69
2023-04-07T16:40:22.704Z,103059.78
2023-04-07T16:43:28.116Z,103067.34
2023-04-07T16:46:33.350Z,103079.19
2023-04-07T16:49:41.358Z,103068.88
2023-04-07T16:52:48.011Z,103072.22
2023-04-07T16:55:56.227Z,103083.69
2023-04-07T16:59:03.371Z,103079.44
2023-04-07T17:02:11.366Z,103078.63
2023-04-07T17:05:17.356Z,103083.50
2023-04-07T17:08:25.801Z,103079.28
2023-04-07T17:11:31.042Z,103087.66
2023-04-07T17:14:36.505Z,103095.09
2023-04-07T17:17:41.563Z,103095.03
2023-04-07T17:20:46.970Z,103090.72
2023-04-07T17:23:56.354Z,103098.16
2023-04-07T17:27:04.776Z,103099.78
2023-04-07T17:30:10.868Z,103099.63
2023-04-07T17:33:16.359Z,103110.53
2023-04-07T17:36:21.721Z,103116.91
2023-04-07T17:39:28.189Z,103106.25
2023-04-07T17:42:33.671Z,103122.13
2023-04-07T17:45:38.767Z,103121.31
2023-04-07T17:48:44.940Z,103121.16
2023-04-07T17:51:50.061Z,103125.31
2023-04-07T17:54:56.603Z,103127.78
2023-04-07T17:58:03.922Z,103138.69
2023-04-07T18:01:10.813Z,103135.25
2023-04-07T18:04:17.053Z,103135.94
2023-04-07T18:07:22.477Z,103133.44
2023-04-07T18:10:29.170Z,103136.75
2023-04-07T18:13:35.030Z,103140.84
2023-04-07T18:16:40.513Z,103137.34
2023-04-07T18:19:45.686Z,103144.88
2023-04-07T18:22:52.942Z,103144.81
2023-04-07T18:26:01.925Z,103152.94
2023-04-07T18:29:10.089Z,103149.69
2023-04-07T18:32:15.369Z,103147.88
2023-04-07T18:35:21.924Z,103160.47
2023-04-07T18:38:28.156Z,103149.47
2023-04-07T18:41:35.026Z,103149.41
2023-04-07T18:44:40.057Z,103145.16
2023-04-07T18:47:45.242Z,103145.03
2023-04-07T18:50:56.975Z,103148.53
2023-04-07T18:54:02.366Z,103147.50
2023-04-07T18:57:09.481Z,103169.47
2023-04-07T19:00:14.728Z,103164.19
2023-04-07T19:03:20.322Z,103172.75
2023-04-07T19:06:28.305Z,103166.59
2023-04-07T19:09:33.311Z,103170.78
2023-04-07T19:12:40.146Z,103165.84
2023-04-07T19:15:46.453Z,103171.78
2023-04-07T19:18:53.282Z,103175.91
2023-04-07T19:21:58.361Z,103162.41
2023-04-07T19:25:03.108Z,103165.69
2023-04-07T19:28:09.961Z,103171.50
2023-04-07T19:31:15.040Z,103164.94
2023-04-07T19:34:21.130Z,103163.94
2023-04-07T19:37:26.404Z,103181.53
2023-04-07T19:40:31.656Z,103175.66
2023-04-07T19:43:41.376Z,103180.72
2023-04-07T19:46:46.919Z,103193.97
2023-04-07T19:49:52.025Z,103190.72
2023-04-07T19:52:57.224Z,103182.09
2023-04-07T19:56:04.944Z,103196.44
2023-04-07T19:59:15.037Z,103176.13
2023-04-07T20:02:22.165Z,103188.81
2023-04-07T20:05:27.682Z,103190.34
2023-04-07T20:08:33.063Z,103203.97
2023-04-07T20:11:38.455Z,103193.66
2023-04-07T20:14:45.123Z,103197.09
2023-04-07T20:17:51.874Z,103198.72
2023-04-07T20:21:00.970Z,103191.19
2023-04-07T20:24:06.409Z,103201.31
2023-04-07T20:27:14.667Z,103196.88
2023-04-07T20:30:21.258Z,103190.72
2023-04-07T20:33:26.587Z,103206.88
2023-04-07T20:36:32.024Z,103199.16
2023-04-07T20:39:37.140Z,103199.47
2023-04-07T20:42:42.245Z,103200.25
2023-04-07T20:45:48.766Z,103205.38
2023-04-07T20:48:54.040Z,103205.38
2023-04-07T20:51:59.192Z,103197.69
2023-04-07T20:55:04.281Z,103206.94
2023-04-07T20:58:10.573Z,103205.94
2023-04-07T21:01:17.138Z,103205.94
2023-04-07T21:04:24.472Z,103206.81
2023-04-07T21:07:29.804Z,103206.63
2023-04-07T21:10:34.973Z,103199.75
2023-04-07T21:13:40.013Z,103207.50
2023-04-07T21:16:46.429Z,103209.94
2023-04-07T21:19:51.516Z,103204.91
2023-04-07T21:22:56.516Z,103208.28
2023-04-07T21:26:05.136Z,103207.44
2023-04-07T21:29:11.285Z,103208.28
2023-04-07T21:32:17.766Z,103217.50
2023-04-07T21:35:23.478Z,103195.50
2023-04-07T21:38:28.676Z,103209.97
2023-04-07T21:41:33.773Z,103207.34
2023-04-07T21:44:39.080Z,103215.78
2023-04-07T21:47:45.485Z,103217.41
2023-04-07T21:50:51.906Z,103212.50
2023-04-07T21:53:56.911Z,103217.53
2023-04-07T21:57:02.411Z,103209.97
2023-04-07T22:00:08.722Z,103211.63
2023-04-07T22:03:21.029Z,103219.19
2023-04-07T22:06:26.799Z,103219.19
2023-04-07T22:09:31.948Z,103210.72
2023-04-07T22:12:37.671Z,103222.56
2023-04-07T22:15:43.482Z,103235.88
2023-04-07T22:18:50.439Z,103221.78
2023-04-07T22:21:56.513Z,103230.16
2023-04-07T22:25:01.874Z,103232.69
2023-04-07T22:28:07.163Z,103218.19
2023-04-07T22:31:12.281Z,103219.06
2023-04-07T22:34:19.255Z,103223.25
2023-04-07T22:37:24.747Z,103221.53
2023-04-07T22:40:29.884Z,103222.38
2023-04-07T22:43:35.007Z,103230.78
2023-04-07T22:46:40.452Z,103232.38
2023-04-07T22:49:46.615Z,103224.06
2023-04-07T22:52:51.661Z,103221.53
2023-04-07T22:55:57.129Z,103229.06
2023-04-07T22:59:05.649Z,103220.72
2023-04-07T23:02:11.051Z,103215.00
2023-04-07T23:05:17.865Z,103215.72
2023-04-07T23:08:22.994Z,103224.25
2023-04-07T23:11:28.072Z,103208.09
2023-04-07T23:14:33.335Z,103225.59
2023-04-07T23:17:38.443Z,103209.81
2023-04-07T23:20:52.244Z,103224.97
2023-04-07T23:23:57.359Z,103210.50
2023-04-07T23:27:02.774Z,103215.84
2023-04-07T23:30:09.160Z,103210.81
2023-04-07T23:33:15.200Z,103214.00
2023-04-07T23:36:22.017Z,103214.88
2023-04-07T23:39:27.912Z,103211.59
2023-04-07T23:42:32.973Z,103216.75
2023-04-07T23:45:38.207Z,103216.00
2023-04-07T23:48:43.550Z,103220.38
2023-04-07T23:51:49.977Z,103223.06
2023-04-07T23:54:55.177Z,103206.00
2023-04-07T23:58:00.149Z,103215.44
